Station: EBLG - 28/05/2022 13:20Z (il y a 27 minutes)
EBLG 281320Z 34010KT 300V020 9999 SCT043 15/03 Q1021 NOSIG
Vent du 340º - 10 kt (vent de direction variable de 300º à 020º)
Visibilité > 10 km
Ciel 50% couvert à 4300 pieds
Température: +15ºC - Point de rosée: +03ºC - QNH: 1021 hPa
Pas de changement significatif prévu dans les 2 heures qui suivent l'observation